Time;durP1;ratioP1;P1;durP2;ratioP2;P2;SDS_P1;SDS_P2;PMS_P1;PMS_P2;Temp;Humidity;BMP_temperature;BMP_pressure;BME280_temperature;BME280_humidity;BME280_pressure;Samples;Min_cycle;Max_cycle;Signal;HPM_P1;HPM_P2
2022/09/12 00:01:20;;;;;;;0.00;0.00;;;;;;;;;;5122549;27;20409;-57
2022/09/12 00:03:46;;;;;;;0.50;0.50;;;;;;;;;;5120436;27;20028;-58
2022/09/12 00:06:13;;;;;;;2.55;2.45;;;;;;;;;;5117560;27;20031;-58
2022/09/12 00:08:39;;;;;;;0.00;0.00;;;;;;;;;;5120176;27;20019;-57
2022/09/12 00:11:05;;;;;;;0.00;0.00;;;;;;;;;;5127972;27;20023;-60
2022/09/12 00:13:30;;;;;;;0.00;0.00;;;;;;;;;;5124436;27;20099;-58
2022/09/12 00:15:56;;;;;;;0.00;0.00;;;;;;;;;;5129423;27;20114;-60
2022/09/12 00:18:21;;;;;;;0.00;0.00;;;;;;;;;;5131242;27;20027;-60
2022/09/12 00:20:46;;;;;;;0.00;0.00;;;;;;;;;;5115496;27;20035;-59
2022/09/12 00:23:12;;;;;;;0.40;0.17;;;;;;;;;;5111375;27;20515;-60
2022/09/12 00:25:44;;;;;;;0.00;0.00;;;;;;;;;;5112328;28;20068;-60
2022/09/12 00:28:10;;;;;;;0.00;0.00;;;;;;;;;;5123117;27;20429;-60
2022/09/12 00:30:42;;;;;;;0.00;0.00;;;;;;;;;;5124592;27;20106;-59
2022/09/12 00:33:08;;;;;;;0.00;0.00;;;;;;;;;;5126308;27;20023;-61
2022/09/12 00:35:34;;;;;;;0.00;0.00;;;;;;;;;;5130346;27;20023;-58
2022/09/12 00:37:59;;;;;;;0.00;0.00;;;;;;;;;;5113527;27;20072;-59
2022/09/12 00:40:24;;;;;;;0.30;0.30;;;;;;;;;;5132186;27;20015;-59
2022/09/12 00:42:49;;;;;;;0.00;0.00;;;;;;;;;;5118731;27;20024;-61
2022/09/12 00:45:19;;;;;;;0.00;0.00;;;;;;;;;;5112345;27;20015;-59
2022/09/12 00:47:45;;;;;;;0.80;0.80;;;;;;;;;;5117206;27;20019;-59
2022/09/12 00:50:12;;;;;;;0.50;0.50;;;;;;;;;;5122064;27;20031;-62
2022/09/12 00:52:51;;;;;;;0.20;0.20;;;;;;;;;;5117306;27;20015;-59
2022/09/12 00:55:36;;;;;;;0.00;0.00;;;;;;;;;;5121324;27;20383;-60
2022/09/12 00:58:22;;;;;;;0.30;0.30;;;;;;;;;;5110719;28;20406;-59
2022/09/12 01:00:47;;;;;;;1.08;1.08;;;;;;;;;;5123998;27;20131;-58
2022/09/12 01:03:13;;;;;;;0.00;0.00;;;;;;;;;;5111932;27;20208;-60
2022/09/12 01:05:47;;;;;;;1.17;0.63;;;;;;;;;;5127526;27;20385;-59
2022/09/12 01:08:12;;;;;;;0.10;0.10;;;;;;;;;;5126704;27;20429;-59
2022/09/12 01:10:38;;;;;;;0.10;0.10;;;;;;;;;;5114112;27;20106;-59
2022/09/12 01:13:05;;;;;;;0.10;0.10;;;;;;;;;;5119569;27;20445;-59
2022/09/12 01:15:35;;;;;;;0.00;0.00;;;;;;;;;;5115329;27;20483;-59
2022/09/12 01:18:00;;;;;;;1.67;1.58;;;;;;;;;;5115151;27;20027;-59
2022/09/12 01:20:29;;;;;;;0.13;0.13;;;;;;;;;;5120163;27;20496;-59
2022/09/12 01:22:57;;;;;;;2.15;1.98;;;;;;;;;;5124215;27;20023;-60
2022/09/12 01:25:28;;;;;;;0.00;0.00;;;;;;;;;;5130358;27;20026;-60
2022/09/12 01:28:09;;;;;;;3.20;2.60;;;;;;;;;;5118206;27;20015;-62
2022/09/12 01:30:37;;;;;;;0.80;0.80;;;;;;;;;;5125039;27;20098;-60
2022/09/12 01:33:09;;;;;;;0.10;0.10;;;;;;;;;;5115422;27;20031;-59
2022/09/12 01:35:44;;;;;;;0.00;0.00;;;;;;;;;;5117938;27;20016;-59
2022/09/12 01:38:28;;;;;;;0.00;0.00;;;;;;;;;;5110307;28;20030;-60
2022/09/12 01:40:53;;;;;;;0.00;0.00;;;;;;;;;;5119201;27;20042;-60
2022/09/12 01:43:22;;;;;;;0.00;0.00;;;;;;;;;;5121795;27;20395;-60
2022/09/12 01:46:16;;;;;;;0.00;0.00;;;;;;;;;;5115854;27;20272;-60
2022/09/12 01:48:44;;;;;;;0.00;0.00;;;;;;;;;;5115208;27;20031;-59
2022/09/12 01:51:22;;;;;;;0.00;0.00;;;;;;;;;;5116716;27;20023;-59
2022/09/12 01:53:49;;;;;;;0.00;0.00;;;;;;;;;;5112283;27;20031;-60
2022/09/12 01:56:21;;;;;;;0.32;0.32;;;;;;;;;;5117100;27;20016;-58
2022/09/12 01:58:55;;;;;;;0.00;0.00;;;;;;;;;;5127772;27;20067;-59
2022/09/12 02:01:23;;;;;;;0.00;0.00;;;;;;;;;;5127711;27;20023;-61
2022/09/12 02:03:57;;;;;;;1.25;0.85;;;;;;;;;;5122040;27;20500;-59
2022/09/12 02:06:27;;;;;;;0.00;0.00;;;;;;;;;;5118957;27;20034;-61
2022/09/12 02:09:02;;;;;;;0.80;0.55;;;;;;;;;;5115277;27;20039;-60
2022/09/12 02:11:29;;;;;;;0.00;0.00;;;;;;;;;;5114656;27;20034;-60
2022/09/12 02:13:58;;;;;;;0.00;0.00;;;;;;;;;;5123652;27;20494;-60
2022/09/12 02:16:27;;;;;;;0.00;0.00;;;;;;;;;;5128601;27;20356;-59
2022/09/12 02:18:56;;;;;;;0.00;0.00;;;;;;;;;;5123561;27;20038;-60
2022/09/12 02:21:22;;;;;;;0.00;0.00;;;;;;;;;;5122945;27;20035;-60
2022/09/12 02:23:50;;;;;;;0.00;0.00;;;;;;;;;;5127945;27;20039;-60
2022/09/12 02:26:20;;;;;;;0.00;0.00;;;;;;;;;;5109465;27;20388;-59
2022/09/12 02:28:45;;;;;;;0.00;0.00;;;;;;;;;;5118497;27;20052;-60
2022/09/12 02:31:27;;;;;;;0.10;0.10;;;;;;;;;;5122410;27;20046;-59
2022/09/12 02:33:58;;;;;;;0.00;0.00;;;;;;;;;;5118874;27;20373;-60
2022/09/12 02:36:42;;;;;;;0.00;0.00;;;;;;;;;;5116842;27;20024;-58
2022/09/12 02:39:08;;;;;;;0.00;0.00;;;;;;;;;;5116298;27;20063;-59
2022/09/12 02:41:33;;;;;;;0.00;0.00;;;;;;;;;;5109565;28;20047;-60
2022/09/12 02:44:00;;;;;;;0.00;0.00;;;;;;;;;;5110629;27;20024;-58
2022/09/12 02:46:32;;;;;;;0.00;0.00;;;;;;;;;;5112410;27;20023;-60
2022/09/12 02:48:58;;;;;;;0.00;0.00;;;;;;;;;;5109944;28;20023;-63
2022/09/12 02:51:23;;;;;;;0.00;0.00;;;;;;;;;;5120969;27;20076;-59
2022/09/12 02:53:49;;;;;;;0.00;0.00;;;;;;;;;;5113465;27;20015;-58
2022/09/12 02:56:17;;;;;;;0.00;0.00;;;;;;;;;;5108917;28;20012;-58
2022/09/12 02:58:42;;;;;;;0.00;0.00;;;;;;;;;;5119886;27;20592;-58
2022/09/12 03:01:16;;;;;;;0.00;0.00;;;;;;;;;;5129276;27;20031;-56
2022/09/12 03:03:41;;;;;;;0.32;0.32;;;;;;;;;;5114318;27;20016;-58
2022/09/12 03:06:16;;;;;;;0.00;0.00;;;;;;;;;;5112058;27;20480;-57
2022/09/12 03:08:57;;;;;;;0.00;0.00;;;;;;;;;;5114863;28;20254;-57
2022/09/12 03:11:22;;;;;;;0.00;0.00;;;;;;;;;;5119022;28;20087;-57
2022/09/12 03:13:47;;;;;;;0.00;0.00;;;;;;;;;;5121073;28;20099;-57
2022/09/12 03:16:18;;;;;;;0.00;0.00;;;;;;;;;;5119241;27;20269;-57
2022/09/12 03:18:49;;;;;;;0.00;0.00;;;;;;;;;;5126054;27;20269;-58
2022/09/12 03:21:20;;;;;;;0.00;0.00;;;;;;;;;;5124583;27;20106;-58
2022/09/12 03:23:51;;;;;;;0.00;0.00;;;;;;;;;;5110639;28;20026;-58
2022/09/12 03:26:38;;;;;;;0.00;0.00;;;;;;;;;;5125331;27;20038;-58
2022/09/12 03:29:05;;;;;;;0.00;0.00;;;;;;;;;;5131316;27;20027;-56
2022/09/12 03:31:31;;;;;;;0.00;0.00;;;;;;;;;;5129925;27;20023;-58
2022/09/12 03:33:58;;;;;;;0.00;0.00;;;;;;;;;;5120870;27;20039;-57
2022/09/12 03:36:24;;;;;;;0.00;0.00;;;;;;;;;;5118671;27;20030;-59
2022/09/12 03:38:50;;;;;;;0.00;0.00;;;;;;;;;;5126336;27;20445;-58
2022/09/12 03:41:15;;;;;;;0.00;0.00;;;;;;;;;;5128785;27;20098;-59
2022/09/12 03:43:40;;;;;;;0.00;0.00;;;;;;;;;;5123051;27;20379;-59
2022/09/12 03:46:05;;;;;;;0.00;0.00;;;;;;;;;;5128383;27;20026;-60
2022/09/12 03:48:31;;;;;;;0.00;0.00;;;;;;;;;;5119314;27;20473;-59
2022/09/12 03:51:00;;;;;;;0.30;0.30;;;;;;;;;;5124077;27;21941;-59
2022/09/12 03:53:25;;;;;;;0.00;0.00;;;;;;;;;;5126642;27;20099;-59
2022/09/12 03:55:50;;;;;;;0.00;0.00;;;;;;;;;;5126440;27;20650;-61
2022/09/12 03:58:15;;;;;;;0.28;0.28;;;;;;;;;;5117730;27;20073;-60
2022/09/12 04:00:43;;;;;;;0.20;0.20;;;;;;;;;;5126034;27;20106;-61
2022/09/12 04:03:11;;;;;;;0.00;0.00;;;;;;;;;;5122689;27;20023;-60
2022/09/12 04:05:36;;;;;;;0.10;0.10;;;;;;;;;;5132825;27;20023;-59
2022/09/12 04:08:02;;;;;;;0.00;0.00;;;;;;;;;;5125712;27;20482;-59
2022/09/12 04:10:27;;;;;;;0.00;0.00;;;;;;;;;;5117416;27;20049;-58
2022/09/12 04:12:52;;;;;;;0.00;0.00;;;;;;;;;;5123882;27;20027;-60
2022/09/12 04:15:17;;;;;;;0.55;0.55;;;;;;;;;;5120175;27;20443;-58
2022/09/12 04:17:43;;;;;;;0.00;0.00;;;;;;;;;;5122750;27;20051;-59
2022/09/12 04:20:08;;;;;;;0.52;0.47;;;;;;;;;;5118680;27;20030;-59
2022/09/12 04:22:33;;;;;;;0.00;0.00;;;;;;;;;;5127640;27;20023;-58
2022/09/12 04:24:58;;;;;;;0.30;0.30;;;;;;;;;;5123328;27;20016;-58
2022/09/12 04:27:24;;;;;;;0.00;0.00;;;;;;;;;;5112022;27;20023;-60
2022/09/12 04:29:49;;;;;;;0.20;0.20;;;;;;;;;;5118912;27;20361;-59
2022/09/12 04:32:17;;;;;;;0.00;0.00;;;;;;;;;;5120230;27;20025;-57
2022/09/12 04:34:42;;;;;;;0.00;0.00;;;;;;;;;;5126150;27;20439;-59
2022/09/12 04:37:10;;;;;;;0.00;0.00;;;;;;;;;;5118453;27;20106;-58
2022/09/12 04:39:35;;;;;;;0.00;0.00;;;;;;;;;;5128757;27;20463;-63
2022/09/12 04:42:02;;;;;;;0.00;0.00;;;;;;;;;;5131848;27;20027;-58
2022/09/12 04:44:27;;;;;;;0.00;0.00;;;;;;;;;;5127361;27;20019;-57
2022/09/12 04:46:53;;;;;;;0.00;0.00;;;;;;;;;;5121947;27;20475;-57
2022/09/12 04:49:18;;;;;;;1.88;1.75;;;;;;;;;;5126000;27;20102;-58
2022/09/12 04:51:44;;;;;;;0.00;0.00;;;;;;;;;;5121529;27;20028;-57
2022/09/12 04:54:14;;;;;;;0.00;0.00;;;;;;;;;;5119433;27;20526;-58
2022/09/12 04:56:40;;;;;;;0.00;0.00;;;;;;;;;;5117705;27;20468;-58
2022/09/12 04:59:06;;;;;;;0.00;0.00;;;;;;;;;;5121268;27;20217;-58
2022/09/12 05:01:31;;;;;;;0.00;0.00;;;;;;;;;;5117044;27;20106;-57
2022/09/12 05:03:58;;;;;;;0.00;0.00;;;;;;;;;;5118477;27;20024;-57
2022/09/12 05:06:24;;;;;;;0.00;0.00;;;;;;;;;;5114957;27;20011;-58
2022/09/12 05:08:50;;;;;;;0.00;0.00;;;;;;;;;;5127326;27;20072;-58
2022/09/12 05:11:17;;;;;;;0.00;0.00;;;;;;;;;;5123738;27;20618;-57
2022/09/12 05:13:43;;;;;;;0.00;0.00;;;;;;;;;;5118148;27;20031;-57
2022/09/12 05:16:12;;;;;;;0.00;0.00;;;;;;;;;;5126908;27;20019;-58
2022/09/12 05:18:37;;;;;;;0.00;0.00;;;;;;;;;;5123997;27;20492;-58
2022/09/12 05:21:04;;;;;;;0.05;0.05;;;;;;;;;;5123801;27;20292;-57
2022/09/12 05:23:29;;;;;;;0.00;0.00;;;;;;;;;;5119199;27;20023;-57
2022/09/12 05:25:56;;;;;;;0.00;0.00;;;;;;;;;;5116611;27;20026;-59
2022/09/12 05:28:24;;;;;;;0.00;0.00;;;;;;;;;;5121978;27;20380;-59
2022/09/12 05:30:58;;;;;;;0.00;0.00;;;;;;;;;;5121456;27;20031;-57
2022/09/12 05:33:23;;;;;;;0.00;0.00;;;;;;;;;;5119110;27;20091;-59
2022/09/12 05:35:52;;;;;;;0.00;0.00;;;;;;;;;;5117766;27;20019;-58
2022/09/12 05:38:17;;;;;;;0.00;0.00;;;;;;;;;;5119471;27;20019;-56
2022/09/12 05:40:42;;;;;;;0.00;0.00;;;;;;;;;;5126902;27;20015;-58
2022/09/12 05:43:07;;;;;;;0.00;0.00;;;;;;;;;;5119885;27;20023;-57
2022/09/12 05:45:33;;;;;;;0.08;0.08;;;;;;;;;;5110359;27;20024;-58
2022/09/12 05:47:58;;;;;;;0.00;0.00;;;;;;;;;;5119390;27;20026;-59
2022/09/12 05:50:24;;;;;;;0.00;0.00;;;;;;;;;;5127683;27;20023;-57
2022/09/12 05:52:49;;;;;;;0.00;0.00;;;;;;;;;;5120358;27;20019;-58
2022/09/12 05:55:15;;;;;;;0.00;0.00;;;;;;;;;;5117502;27;20371;-57
2022/09/12 05:57:42;;;;;;;0.00;0.00;;;;;;;;;;5116055;27;20483;-58
2022/09/12 06:00:08;;;;;;;0.00;0.00;;;;;;;;;;5113560;27;20026;-58
2022/09/12 06:02:33;;;;;;;0.00;0.00;;;;;;;;;;5122372;27;20031;-59
2022/09/12 06:04:59;;;;;;;0.00;0.00;;;;;;;;;;5118306;27;20022;-59
2022/09/12 06:07:24;;;;;;;0.00;0.00;;;;;;;;;;5125323;27;20072;-58
2022/09/12 06:09:49;;;;;;;0.00;0.00;;;;;;;;;;5122728;27;20019;-58
2022/09/12 06:12:14;;;;;;;0.00;0.00;;;;;;;;;;5118076;27;20049;-58
2022/09/12 06:14:39;;;;;;;0.00;0.00;;;;;;;;;;5122440;27;20057;-58
2022/09/12 06:17:05;;;;;;;0.00;0.00;;;;;;;;;;5128891;27;20126;-57
2022/09/12 06:19:30;;;;;;;0.00;0.00;;;;;;;;;;5121276;27;20030;-58
2022/09/12 06:21:55;;;;;;;0.00;0.00;;;;;;;;;;5123474;27;20031;-58
2022/09/12 06:24:21;;;;;;;0.00;0.00;;;;;;;;;;5108688;27;20016;-58
2022/09/12 06:26:47;;;;;;;0.00;0.00;;;;;;;;;;5113702;27;20094;-58
2022/09/12 06:29:13;;;;;;;0.00;0.00;;;;;;;;;;5114107;27;20430;-58
2022/09/12 06:31:40;;;;;;;0.00;0.00;;;;;;;;;;5124054;27;20023;-58
2022/09/12 06:34:06;;;;;;;0.00;0.00;;;;;;;;;;5123921;27;20386;-58
2022/09/12 06:36:32;;;;;;;0.00;0.00;;;;;;;;;;5129228;27;20026;-58
2022/09/12 06:38:59;;;;;;;0.00;0.00;;;;;;;;;;5129065;27;20023;-59
2022/09/12 06:41:25;;;;;;;0.00;0.00;;;;;;;;;;5109148;27;20054;-59
2022/09/12 06:43:51;;;;;;;0.00;0.00;;;;;;;;;;5120799;27;20505;-58
2022/09/12 06:46:17;;;;;;;0.00;0.00;;;;;;;;;;5127559;27;20476;-58
2022/09/12 06:48:43;;;;;;;0.00;0.00;;;;;;;;;;5120791;27;20019;-58
2022/09/12 06:51:09;;;;;;;0.00;0.00;;;;;;;;;;5116717;27;20038;-59
2022/09/12 06:53:37;;;;;;;0.00;0.00;;;;;;;;;;5128737;27;20031;-58
2022/09/12 06:56:07;;;;;;;6.60;6.40;;;;;;;;;;5117351;27;20063;-59
2022/09/12 06:58:33;;;;;;;0.00;0.00;;;;;;;;;;5116800;27;20124;-57
2022/09/12 07:01:09;;;;;;;0.00;0.00;;;;;;;;;;5119213;27;20055;-58
2022/09/12 07:03:34;;;;;;;0.00;0.00;;;;;;;;;;5113986;27;20020;-58
2022/09/12 07:06:07;;;;;;;2.33;1.35;;;;;;;;;;5110158;27;20020;-59
2022/09/12 07:08:33;;;;;;;0.00;0.00;;;;;;;;;;5125422;28;20016;-60
2022/09/12 07:11:00;;;;;;;0.00;0.00;;;;;;;;;;5127653;27;20038;-59
2022/09/12 07:13:25;;;;;;;0.00;0.00;;;;;;;;;;5113610;27;20057;-59
2022/09/12 07:15:50;;;;;;;0.00;0.00;;;;;;;;;;5126798;27;20073;-58
2022/09/12 07:18:16;;;;;;;0.00;0.00;;;;;;;;;;5126073;28;20027;-60
2022/09/12 07:20:41;;;;;;;0.00;0.00;;;;;;;;;;5127886;27;20072;-59
2022/09/12 07:23:07;;;;;;;0.20;0.20;;;;;;;;;;5120241;27;20019;-60
2022/09/12 07:25:32;;;;;;;0.00;0.00;;;;;;;;;;5114174;28;20096;-60
2022/09/12 07:27:57;;;;;;;0.10;0.10;;;;;;;;;;5115734;27;20027;-59
2022/09/12 07:30:22;;;;;;;0.00;0.00;;;;;;;;;;5120212;28;20018;-60
2022/09/12 07:32:51;;;;;;;0.00;0.00;;;;;;;;;;5124921;28;20030;-60
2022/09/12 07:35:16;;;;;;;0.00;0.00;;;;;;;;;;5118190;28;20676;-59
2022/09/12 07:37:42;;;;;;;0.10;0.08;;;;;;;;;;5116303;28;20249;-60
2022/09/12 07:40:08;;;;;;;0.00;0.00;;;;;;;;;;5118077;28;20019;-61
2022/09/12 07:42:33;;;;;;;0.10;0.10;;;;;;;;;;5118823;28;20027;-60
2022/09/12 07:44:58;;;;;;;0.00;0.00;;;;;;;;;;5122568;28;20035;-59
2022/09/12 07:47:23;;;;;;;0.00;0.00;;;;;;;;;;5116038;27;20295;-60
2022/09/12 07:49:49;;;;;;;0.20;0.20;;;;;;;;;;5120216;28;20031;-60
2022/09/12 07:52:14;;;;;;;0.10;0.10;;;;;;;;;;5123114;28;20019;-61
2022/09/12 07:54:39;;;;;;;0.47;0.47;;;;;;;;;;5119120;28;20019;-59
2022/09/12 07:57:04;;;;;;;0.00;0.00;;;;;;;;;;5119543;28;20063;-62
2022/09/12 07:59:29;;;;;;;0.00;0.00;;;;;;;;;;5125871;27;20051;-60
2022/09/12 08:01:55;;;;;;;0.00;0.00;;;;;;;;;;5119286;28;20023;-60
2022/09/12 08:04:20;;;;;;;0.00;0.00;;;;;;;;;;5113321;27;20350;-61
2022/09/12 08:06:45;;;;;;;0.00;0.00;;;;;;;;;;5119279;27;20265;-60
2022/09/12 08:09:11;;;;;;;0.17;0.17;;;;;;;;;;5121113;28;20023;-60
2022/09/12 08:11:37;;;;;;;7.72;0.25;;;;;;;;;;5121480;27;20028;-61
2022/09/12 08:14:04;;;;;;;0.00;0.00;;;;;;;;;;5122777;27;20077;-60
2022/09/12 08:16:30;;;;;;;0.68;0.68;;;;;;;;;;5118193;27;20019;-60
2022/09/12 08:18:55;;;;;;;0.00;0.00;;;;;;;;;;5121929;27;20740;-60
2022/09/12 08:21:22;;;;;;;0.00;0.00;;;;;;;;;;5121966;27;20059;-61
2022/09/12 08:23:52;;;;;;;0.00;0.00;;;;;;;;;;5124246;27;20043;-60
2022/09/12 08:26:18;;;;;;;0.00;0.00;;;;;;;;;;5124953;27;20061;-61
2022/09/12 08:28:45;;;;;;;0.05;0.05;;;;;;;;;;5124225;27;20047;-61
2022/09/12 08:31:11;;;;;;;0.00;0.00;;;;;;;;;;5123231;27;20016;-60
2022/09/12 08:33:37;;;;;;;0.00;0.00;;;;;;;;;;5122349;27;20035;-60
2022/09/12 08:36:11;;;;;;;0.00;0.00;;;;;;;;;;5124634;27;20023;-61
2022/09/12 08:38:38;;;;;;;0.30;0.30;;;;;;;;;;5120634;27;20106;-60
2022/09/12 08:41:08;;;;;;;0.00;0.00;;;;;;;;;;5124797;27;20407;-61
2022/09/12 08:43:33;;;;;;;0.63;0.63;;;;;;;;;;5126067;27;20475;-61
2022/09/12 08:46:06;;;;;;;0.00;0.00;;;;;;;;;;5129428;27;20103;-60
2022/09/12 08:48:32;;;;;;;0.00;0.00;;;;;;;;;;5124988;27;20087;-60
2022/09/12 08:50:57;;;;;;;0.00;0.00;;;;;;;;;;5127546;27;20114;-60
2022/09/12 08:53:25;;;;;;;0.00;0.00;;;;;;;;;;5125159;27;20071;-60
2022/09/12 08:56:02;;;;;;;0.00;0.00;;;;;;;;;;5124417;27;20537;-60
2022/09/12 08:58:28;;;;;;;0.00;0.00;;;;;;;;;;5125783;27;20051;-60
2022/09/12 09:00:56;;;;;;;0.00;0.00;;;;;;;;;;5126050;27;20099;-60
2022/09/12 09:03:25;;;;;;;0.00;0.00;;;;;;;;;;5124334;27;20138;-59
2022/09/12 09:05:59;;;;;;;0.00;0.00;;;;;;;;;;5123307;27;20023;-60
2022/09/12 09:08:43;;;;;;;0.00;0.00;;;;;;;;;;5127377;27;20088;-60
2022/09/12 09:11:28;;;;;;;0.00;0.00;;;;;;;;;;5120139;27;20275;-60
2022/09/12 09:16:48;;;;;;;0.00;0.00;;;;;;;;;;5121708;27;20039;-60
2022/09/12 09:19:16;;;;;;;0.00;0.00;;;;;;;;;;5118735;27;20032;-60
2022/09/12 09:21:57;;;;;;;0.00;0.00;;;;;;;;;;5119219;27;20031;-60
2022/09/12 09:24:25;;;;;;;0.00;0.00;;;;;;;;;;5121121;27;20410;-60
2022/09/12 09:26:56;;;;;;;0.00;0.00;;;;;;;;;;5121781;27;20460;-59
2022/09/12 09:29:22;;;;;;;2.17;0.65;;;;;;;;;;5124118;27;20016;-59
2022/09/12 09:31:50;;;;;;;0.00;0.00;;;;;;;;;;5127021;27;20072;-59
2022/09/12 09:34:20;;;;;;;0.00;0.00;;;;;;;;;;5122045;27;20051;-59
2022/09/12 09:36:45;;;;;;;0.05;0.03;;;;;;;;;;5121434;27;20024;-60
2022/09/12 09:39:22;;;;;;;0.00;0.00;;;;;;;;;;5124742;27;20025;-59
2022/09/12 09:41:56;;;;;;;0.00;0.00;;;;;;;;;;5128931;27;20289;-59
2022/09/12 09:44:22;;;;;;;0.00;0.00;;;;;;;;;;5122730;27;20460;-60
2022/09/12 09:46:49;;;;;;;0.00;0.00;;;;;;;;;;5120581;27;20022;-59
2022/09/12 09:49:15;;;;;;;0.00;0.00;;;;;;;;;;5116530;27;20034;-60
2022/09/12 09:51:41;;;;;;;0.00;0.00;;;;;;;;;;5119843;27;20062;-60
2022/09/12 09:54:21;;;;;;;0.00;0.00;;;;;;;;;;5125024;27;20055;-60
2022/09/12 09:56:46;;;;;;;0.05;0.05;;;;;;;;;;5130005;27;20383;-60
2022/09/12 09:59:14;;;;;;;0.00;0.00;;;;;;;;;;5126240;27;20039;-60
2022/09/12 10:01:59;;;;;;;0.00;0.00;;;;;;;;;;5128337;27;20019;-59
2022/09/12 10:04:25;;;;;;;0.00;0.00;;;;;;;;;;5120534;27;20027;-60
2022/09/12 10:07:01;;;;;;;0.00;0.00;;;;;;;;;;5119579;27;20015;-59
2022/09/12 10:09:27;;;;;;;0.00;0.00;;;;;;;;;;5117892;27;20019;-59
2022/09/12 10:11:53;;;;;;;0.90;0.90;;;;;;;;;;5123672;27;20030;-59
2022/09/12 10:14:26;;;;;;;0.00;0.00;;;;;;;;;;5123357;27;20106;-59
2022/09/12 10:16:52;;;;;;;0.00;0.00;;;;;;;;;;5123961;27;20033;-60
2022/09/12 10:19:24;;;;;;;0.47;0.47;;;;;;;;;;5121243;27;20483;-60
2022/09/12 10:21:55;;;;;;;0.00;0.00;;;;;;;;;;5123016;27;20027;-60
2022/09/12 10:24:20;;;;;;;0.00;0.00;;;;;;;;;;5117947;27;20467;-59
2022/09/12 10:26:50;;;;;;;0.00;0.00;;;;;;;;;;5118816;27;20098;-59
2022/09/12 10:29:27;;;;;;;0.20;0.20;;;;;;;;;;5124725;27;20254;-59
2022/09/12 10:31:54;;;;;;;0.00;0.00;;;;;;;;;;5121650;27;20067;-59
2022/09/12 10:34:20;;;;;;;0.00;0.00;;;;;;;;;;5123609;27;20051;-59
2022/09/12 10:36:45;;;;;;;0.00;0.00;;;;;;;;;;5124501;27;20737;-59
2022/09/12 10:39:16;;;;;;;0.00;0.00;;;;;;;;;;5118919;27;20029;-60
2022/09/12 10:41:41;;;;;;;0.00;0.00;;;;;;;;;;5116496;27;20023;-60
2022/09/12 10:44:08;;;;;;;0.00;0.00;;;;;;;;;;5125939;27;20023;-59
2022/09/12 10:46:33;;;;;;;0.00;0.00;;;;;;;;;;5121136;27;20141;-59
2022/09/12 10:49:13;;;;;;;0.00;0.00;;;;;;;;;;5125828;27;20090;-60
2022/09/12 10:51:38;;;;;;;0.00;0.00;;;;;;;;;;5117226;27;20098;-60
2022/09/12 10:54:05;;;;;;;0.00;0.00;;;;;;;;;;5124070;27;20094;-60
2022/09/12 10:56:32;;;;;;;0.00;0.00;;;;;;;;;;5121230;27;20377;-60
2022/09/12 10:59:10;;;;;;;0.00;0.00;;;;;;;;;;5122023;27;20054;-60
2022/09/12 11:01:40;;;;;;;0.05;0.05;;;;;;;;;;5127639;27;20026;-60
2022/09/12 11:04:11;;;;;;;0.00;0.00;;;;;;;;;;5124799;27;20459;-61
2022/09/12 11:06:46;;;;;;;0.00;0.00;;;;;;;;;;5121398;27;20020;-60
2022/09/12 11:09:22;;;;;;;0.00;0.00;;;;;;;;;;5122057;27;20019;-61
2022/09/12 11:12:20;;;;;;;0.00;0.00;;;;;;;;;;5123749;28;20456;-59
2022/09/12 11:14:54;;;;;;;0.00;0.00;;;;;;;;;;5097439;28;20483;-59
2022/09/12 11:17:25;;;;;;;0.00;0.00;;;;;;;;;;5114803;28;20020;-59
2022/09/12 11:19:53;;;;;;;0.00;0.00;;;;;;;;;;5121671;28;20109;-59
2022/09/12 11:22:34;;;;;;;0.00;0.00;;;;;;;;;;5116782;27;20027;-60
2022/09/12 11:25:02;;;;;;;0.00;0.00;;;;;;;;;;5118676;28;20034;-61
2022/09/12 11:27:30;;;;;;;0.00;0.00;;;;;;;;;;5120224;28;20115;-61
2022/09/12 11:30:00;;;;;;;0.00;0.00;;;;;;;;;;5121380;28;20015;-61
2022/09/12 11:32:44;;;;;;;0.00;0.00;;;;;;;;;;5121655;28;20030;-61
2022/09/12 11:35:23;;;;;;;0.00;0.00;;;;;;;;;;5120629;28;20050;-60
2022/09/12 11:38:03;;;;;;;0.00;0.00;;;;;;;;;;5117515;28;20115;-62
2022/09/12 11:40:41;;;;;;;0.00;0.00;;;;;;;;;;5117003;28;20028;-61
2022/09/12 11:43:11;;;;;;;0.00;0.00;;;;;;;;;;5121164;28;20034;-62
2022/09/12 11:45:41;;;;;;;0.00;0.00;;;;;;;;;;5123192;27;20098;-60
2022/09/12 11:48:10;;;;;;;0.00;0.00;;;;;;;;;;5123600;27;20016;-61
2022/09/12 11:50:36;;;;;;;0.00;0.00;;;;;;;;;;5124466;27;20032;-61
2022/09/12 11:53:11;;;;;;;0.45;0.35;;;;;;;;;;5127257;27;20032;-60
2022/09/12 11:55:49;;;;;;;0.00;0.00;;;;;;;;;;5121689;27;20019;-60
2022/09/12 11:58:15;;;;;;;0.00;0.00;;;;;;;;;;5124147;27;20403;-61
2022/09/12 12:00:47;;;;;;;0.00;0.00;;;;;;;;;;5125056;27;20054;-60
2022/09/12 12:03:31;;;;;;;0.17;0.17;;;;;;;;;;5121229;27;20023;-60
2022/09/12 12:06:05;;;;;;;1.60;0.68;;;;;;;;;;5126189;27;20383;-61
2022/09/12 12:08:32;;;;;;;0.00;0.00;;;;;;;;;;5123212;27;20075;-61
2022/09/12 12:10:58;;;;;;;0.38;0.10;;;;;;;;;;5119867;27;20085;-61
2022/09/12 12:13:39;;;;;;;0.38;0.38;;;;;;;;;;5123619;27;20076;-61
2022/09/12 12:16:06;;;;;;;3.33;0.32;;;;;;;;;;5123989;27;20027;-61
2022/09/12 12:18:33;;;;;;;0.03;0.03;;;;;;;;;;5122522;27;20051;-60
2022/09/12 12:21:18;;;;;;;0.00;0.00;;;;;;;;;;5128006;27;20019;-61
2022/09/12 12:24:10;;;;;;;0.28;0.28;;;;;;;;;;5121768;27;20479;-60
2022/09/12 12:26:38;;;;;;;0.75;0.75;;;;;;;;;;5125157;27;20047;-61
2022/09/12 12:29:07;;;;;;;0.00;0.00;;;;;;;;;;5125730;27;20495;-61
2022/09/12 12:31:52;;;;;;;0.15;0.15;;;;;;;;;;5119349;27;20053;-60
2022/09/12 12:34:20;;;;;;;0.00;0.00;;;;;;;;;;5127350;27;20023;-61
2022/09/12 12:36:49;;;;;;;0.00;0.00;;;;;;;;;;5118589;27;20020;-61
2022/09/12 12:39:32;;;;;;;0.00;0.00;;;;;;;;;;5125659;27;20035;-61
2022/09/12 12:41:58;;;;;;;0.00;0.00;;;;;;;;;;5124745;27;20469;-61
2022/09/12 12:44:42;;;;;;;0.00;0.00;;;;;;;;;;5123669;27;20058;-61
2022/09/12 12:47:16;;;;;;;0.00;0.00;;;;;;;;;;5121395;27;20012;-62
2022/09/12 12:49:48;;;;;;;0.30;0.30;;;;;;;;;;5127327;27;20054;-60
2022/09/12 12:52:16;;;;;;;0.75;0.55;;;;;;;;;;5122571;27;20027;-60
2022/09/12 12:54:41;;;;;;;0.15;0.15;;;;;;;;;;5127674;27;20027;-62
2022/09/12 12:57:25;;;;;;;0.25;0.25;;;;;;;;;;5123245;27;20089;-61
2022/09/12 12:59:52;;;;;;;0.00;0.00;;;;;;;;;;5120958;27;20023;-60
2022/09/12 13:02:43;;;;;;;0.03;0.03;;;;;;;;;;5115539;27;20040;-61
2022/09/12 13:05:18;;;;;;;0.00;0.00;;;;;;;;;;5121026;27;20042;-62
2022/09/12 13:07:43;;;;;;;0.80;0.35;;;;;;;;;;5119816;27;20390;-61
2022/09/12 13:10:19;;;;;;;0.00;0.00;;;;;;;;;;5127479;27;20022;-61
2022/09/12 13:12:46;;;;;;;0.00;0.00;;;;;;;;;;5123340;27;20032;-61
2022/09/12 13:15:30;;;;;;;0.03;0.03;;;;;;;;;;5119974;27;20062;-61
2022/09/12 13:17:59;;;;;;;0.00;0.00;;;;;;;;;;5121793;27;20498;-62
2022/09/12 13:20:31;;;;;;;0.00;0.00;;;;;;;;;;5122681;27;20054;-61
2022/09/12 13:22:56;;;;;;;0.32;0.32;;;;;;;;;;5122029;27;20032;-60
2022/09/12 13:25:34;;;;;;;0.00;0.00;;;;;;;;;;5124063;27;20072;-61
2022/09/12 13:27:59;;;;;;;0.00;0.00;;;;;;;;;;5123233;27;20417;-60
2022/09/12 13:30:25;;;;;;;0.00;0.00;;;;;;;;;;5118152;27;20333;-60
2022/09/12 13:32:51;;;;;;;0.00;0.00;;;;;;;;;;5125006;27;20249;-61
2022/09/12 13:35:24;;;;;;;0.00;0.00;;;;;;;;;;5123332;27;20349;-61
2022/09/12 13:38:02;;;;;;;0.00;0.00;;;;;;;;;;5118504;27;20520;-62
2022/09/12 13:40:51;;;;;;;0.00;0.00;;;;;;;;;;5118958;27;20597;-62
2022/09/12 13:43:19;;;;;;;0.00;0.00;;;;;;;;;;5107000;27;20110;-61
2022/09/12 13:45:45;;;;;;;0.00;0.00;;;;;;;;;;5119658;27;20038;-60
2022/09/12 13:48:19;;;;;;;0.00;0.00;;;;;;;;;;5125528;27;20015;-61
2022/09/12 13:50:47;;;;;;;0.00;0.00;;;;;;;;;;5124788;27;20480;-60
2022/09/12 13:53:14;;;;;;;0.15;0.15;;;;;;;;;;5126390;27;20313;-60
2022/09/12 13:55:41;;;;;;;0.75;0.75;;;;;;;;;;5120484;27;20106;-62
2022/09/12 13:58:20;;;;;;;1.08;1.08;;;;;;;;;;5120767;27;20095;-61
2022/09/12 14:00:45;;;;;;;;;;;;;;;;;;5121212;27;20058;-62
2022/09/12 14:06:07;;;;;;;0.00;0.00;;;;;;;;;;5118742;27;20276;-62
2022/09/12 14:08:32;;;;;;;0.00;0.00;;;;;;;;;;5117832;27;20463;-62
2022/09/12 14:10:59;;;;;;;0.00;0.00;;;;;;;;;;5115186;27;20048;-61
2022/09/12 14:13:25;;;;;;;0.00;0.00;;;;;;;;;;5127233;27;20064;-62
2022/09/12 14:15:52;;;;;;;0.00;0.00;;;;;;;;;;5113830;27;20043;-62
2022/09/12 14:18:33;;;;;;;0.00;0.00;;;;;;;;;;5114329;27;20099;-61
2022/09/12 14:21:05;;;;;;;0.00;0.00;;;;;;;;;;5123726;27;20049;-61
2022/09/12 14:23:31;;;;;;;0.00;0.00;;;;;;;;;;5110617;27;20166;-62
2022/09/12 14:25:58;;;;;;;0.00;0.00;;;;;;;;;;5126576;27;20102;-61
2022/09/12 14:28:26;;;;;;;0.00;0.00;;;;;;;;;;5111882;27;20051;-61
2022/09/12 14:30:58;;;;;;;0.00;0.00;;;;;;;;;;5113668;27;20046;-61
2022/09/12 14:33:23;;;;;;;0.00;0.00;;;;;;;;;;5114121;27;20184;-62
2022/09/12 14:36:05;;;;;;;0.00;0.00;;;;;;;;;;5105582;28;20112;-62
2022/09/12 14:38:34;;;;;;;0.13;0.13;;;;;;;;;;5118004;27;20063;-61
2022/09/12 14:41:00;;;;;;;;;;;;;;;;;;5109782;27;20019;-62
2022/09/12 14:43:25;;;;;;;0.00;0.00;;;;;;;;;;5104523;27;19911;-61
2022/09/12 14:45:55;;;;;;;0.00;0.00;;;;;;;;;;5111481;27;20726;-61
2022/09/12 14:48:20;;;;;;;0.00;0.00;;;;;;;;;;5115622;27;20284;-62
2022/09/12 14:50:50;;;;;;;0.00;0.00;;;;;;;;;;5115804;27;20468;-61
2022/09/12 14:53:15;;;;;;;0.00;0.00;;;;;;;;;;5116515;27;20026;-61
2022/09/12 14:55:41;;;;;;;0.00;0.00;;;;;;;;;;5108873;28;20527;-62
2022/09/12 14:58:13;;;;;;;0.13;0.13;;;;;;;;;;5125783;27;20372;-61
2022/09/12 15:00:50;;;;;;;0.55;0.55;;;;;;;;;;5128454;27;20035;-61